createdAt,value
2018-06-19T00:00:32.150Z,83.31
2018-06-19T00:01:32.143Z,83.69
2018-06-19T00:02:32.131Z,83.60
2018-06-19T00:03:32.126Z,83.89
2018-06-19T00:04:32.115Z,83.98
2018-06-19T00:05:32.103Z,83.79
2018-06-19T00:06:32.095Z,83.40
2018-06-19T00:07:32.083Z,83.89
2018-06-19T00:08:32.078Z,83.79
2018-06-19T00:09:32.066Z,84.27
2018-06-19T00:10:32.059Z,84.27
2018-06-19T00:11:32.038Z,84.17
2018-06-19T00:12:32.034Z,84.08
2018-06-19T00:13:32.026Z,83.69
2018-06-19T00:14:32.018Z,83.60
2018-06-19T00:15:32.006Z,83.60
2018-06-19T00:16:31.991Z,83.40
2018-06-19T00:17:31.985Z,83.89
2018-06-19T00:18:31.977Z,83.98
2018-06-19T00:19:31.961Z,84.65
2018-06-19T00:20:31.956Z,84.17
2018-06-19T00:21:31.943Z,84.17
2018-06-19T00:22:31.935Z,84.27
2018-06-19T00:23:31.927Z,84.46
2018-06-19T00:24:31.920Z,84.46
2018-06-19T00:25:31.903Z,84.27
2018-06-19T00:26:31.898Z,84.65
2018-06-19T00:27:31.886Z,84.17
2018-06-19T00:28:31.877Z,84.46
2018-06-19T00:29:31.870Z,84.36
2018-06-19T00:30:31.853Z,84.46
2018-06-19T00:31:31.851Z,83.98
2018-06-19T00:32:31.835Z,84.17
2018-06-19T00:33:31.825Z,84.55
2018-06-19T00:34:31.815Z,84.46
2018-06-19T00:35:31.803Z,84.36
2018-06-19T00:36:31.793Z,84.55
2018-06-19T00:37:31.786Z,84.17
2018-06-19T00:38:31.775Z,84.17
2018-06-19T00:39:31.764Z,84.17
2018-06-19T00:40:31.758Z,83.98
2018-06-19T00:41:31.743Z,83.40
2018-06-19T00:42:31.735Z,83.79
2018-06-19T00:43:31.724Z,83.89
2018-06-19T00:44:31.720Z,83.89
2018-06-19T00:45:31.705Z,83.79
2018-06-19T00:46:31.693Z,83.50
2018-06-19T00:47:31.692Z,83.31
2018-06-19T00:48:31.675Z,83.89
2018-06-19T00:49:31.668Z,83.69
2018-06-19T00:50:31.653Z,83.89
2018-06-19T00:51:31.655Z,83.89
2018-06-19T00:52:31.638Z,83.84
2018-06-19T00:53:31.624Z,83.89
2018-06-19T00:54:31.618Z,83.60
2018-06-19T00:55:31.602Z,83.60
2018-06-19T00:56:31.597Z,83.69
2018-06-19T00:57:31.580Z,83.50
2018-06-19T00:58:31.569Z,83.17
2018-06-19T00:59:31.562Z,83.60
2018-06-19T01:00:31.557Z,83.31
2018-06-19T01:01:31.545Z,83.22
2018-06-19T01:02:31.533Z,83.46
2018-06-19T01:03:31.522Z,83.08
2018-06-19T01:04:31.513Z,83.17
2018-06-19T01:05:31.500Z,83.37
2018-06-19T01:06:31.495Z,83.75
2018-06-19T01:07:31.481Z,83.94
2018-06-19T01:08:31.480Z,84.03
2018-06-19T01:09:31.460Z,84.23
2018-06-19T01:10:31.451Z,84.42
2018-06-19T01:11:31.444Z,84.23
2018-06-19T01:12:31.436Z,84.03
2018-06-19T01:13:31.426Z,84.13
2018-06-19T01:14:31.418Z,84.42
2018-06-19T01:15:31.406Z,84.42
2018-06-19T01:16:31.390Z,84.52
2018-06-19T01:17:31.382Z,84.61
2018-06-19T01:18:31.367Z,84.70
2018-06-19T01:19:31.360Z,84.80
2018-06-19T01:20:31.351Z,84.70
2018-06-19T01:21:31.343Z,84.42
2018-06-19T01:22:31.333Z,84.52
2018-06-19T01:23:31.323Z,84.52
2018-06-19T01:24:31.309Z,84.89
2018-06-19T01:25:31.299Z,85.18
2018-06-19T01:26:31.289Z,85.47
2018-06-19T01:27:31.279Z,85.57
2018-06-19T01:28:31.278Z,85.57
2018-06-19T01:29:31.261Z,85.47
2018-06-19T01:30:31.249Z,85.57
2018-06-19T01:31:31.238Z,85.85
2018-06-19T01:32:31.228Z,85.75
2018-06-19T01:33:31.222Z,85.85
2018-06-19T01:34:31.209Z,85.85
2018-06-19T01:35:31.200Z,85.38
2018-06-19T01:36:31.188Z,85.57
2018-06-19T01:37:31.176Z,85.94
2018-06-19T01:38:31.167Z,86.43
2018-06-19T01:39:31.155Z,86.52
2018-06-19T01:40:31.143Z,86.04
2018-06-19T01:41:31.133Z,86.43
2018-06-19T01:42:31.125Z,86.04
2018-06-19T01:43:31.116Z,86.43
2018-06-19T01:44:31.107Z,85.85
2018-06-19T01:45:31.096Z,85.75
2018-06-19T01:46:31.084Z,85.57
2018-06-19T01:47:31.075Z,85.57
2018-06-19T01:48:31.065Z,85.75
2018-06-19T01:49:31.051Z,86.38
2018-06-19T01:50:31.043Z,85.75
2018-06-19T01:51:31.027Z,85.47
2018-06-19T01:52:31.022Z,85.85
2018-06-19T01:53:31.010Z,85.94
2018-06-19T01:54:31.002Z,85.38
2018-06-19T01:55:30.996Z,84.99
2018-06-19T01:56:30.980Z,85.09
2018-06-19T01:57:30.969Z,85.09
2018-06-19T01:58:30.964Z,85.09
2018-06-19T01:59:30.954Z,85.18
2018-06-19T02:00:30.939Z,84.61
2018-06-19T02:01:30.923Z,84.23
2018-06-19T02:02:30.919Z,84.32
2018-06-19T02:03:30.909Z,84.89
2018-06-19T02:04:30.897Z,84.80
2018-06-19T02:05:30.887Z,84.61
2018-06-19T02:06:30.875Z,84.89
2018-06-19T02:07:30.863Z,84.89
2018-06-19T02:08:30.853Z,85.18
2018-06-19T02:09:30.852Z,85.18
2018-06-19T02:10:30.840Z,84.80
2018-06-19T02:11:30.822Z,84.70
2018-06-19T02:12:30.813Z,84.32
2018-06-19T02:13:30.807Z,84.70
2018-06-19T02:14:30.793Z,84.52
2018-06-19T02:15:30.783Z,84.61
2018-06-19T02:16:30.774Z,84.52
2018-06-19T02:17:30.766Z,84.80
2018-06-19T02:18:30.753Z,84.99
2018-06-19T02:19:30.746Z,85.28
2018-06-19T02:20:30.739Z,85.18
2018-06-19T02:21:30.721Z,85.18
2018-06-19T02:22:30.714Z,85.18
2018-06-19T02:23:30.702Z,84.89
2018-06-19T02:24:30.686Z,85.09
2018-06-19T02:25:30.679Z,84.99
2018-06-19T02:26:30.667Z,85.18
2018-06-19T02:27:30.661Z,84.23
2018-06-19T02:28:30.654Z,84.42
2018-06-19T02:29:30.643Z,84.70
2018-06-19T02:30:30.631Z,84.89
2018-06-19T02:31:30.619Z,84.70
2018-06-19T02:32:30.604Z,84.52
2018-06-19T02:33:30.603Z,84.32
2018-06-19T02:34:30.590Z,84.52
2018-06-19T02:35:30.584Z,84.52
2018-06-19T02:36:30.564Z,84.42
2018-06-19T02:37:30.554Z,84.52
2018-06-19T02:38:30.550Z,84.42
2018-06-19T02:39:30.536Z,84.61
2018-06-19T02:40:30.525Z,84.89
2018-06-19T02:41:30.514Z,84.52
2018-06-19T02:42:30.505Z,84.23
2018-06-19T02:43:30.493Z,84.52
2018-06-19T02:44:30.490Z,84.89
2018-06-19T02:45:30.478Z,84.70
2018-06-19T02:46:30.467Z,84.52
2018-06-19T02:47:30.452Z,84.89
2018-06-19T02:48:30.443Z,84.99
2018-06-19T02:49:30.435Z,85.38
2018-06-19T02:50:30.421Z,84.80
2018-06-19T02:51:30.407Z,84.52
2018-06-19T02:52:30.399Z,84.42
2018-06-19T02:53:30.395Z,83.37
2018-06-19T02:54:30.382Z,83.56
2018-06-19T02:55:30.371Z,83.27
2018-06-19T02:56:30.364Z,82.79
2018-06-19T02:57:30.350Z,83.27
2018-06-19T02:58:30.342Z,82.79
2018-06-19T02:59:30.328Z,83.46
2018-06-19T03:00:30.350Z,83.37
2018-06-19T03:01:30.310Z,83.37
2018-06-19T03:02:30.300Z,83.27
2018-06-19T03:03:30.290Z,83.65
2018-06-19T03:04:30.273Z,83.75
2018-06-19T03:05:30.267Z,84.42
2018-06-19T03:06:30.253Z,83.84
2018-06-19T03:07:30.247Z,83.56
2018-06-19T03:08:30.233Z,83.46
2018-06-19T03:09:30.231Z,83.17
2018-06-19T03:10:30.221Z,82.70
2018-06-19T03:11:30.203Z,83.46
2018-06-19T03:12:30.195Z,83.27
2018-06-19T03:13:30.184Z,83.46
2018-06-19T03:14:30.181Z,83.08
2018-06-19T03:15:30.164Z,83.17
2018-06-19T03:16:30.156Z,82.74
2018-06-19T03:17:30.136Z,81.84
2018-06-19T03:18:30.136Z,82.51
2018-06-19T03:19:30.126Z,83.12
2018-06-19T03:20:30.109Z,82.26
2018-06-19T03:21:30.105Z,81.55
2018-06-19T03:22:30.095Z,82.26
2018-06-19T03:23:30.085Z,81.97
2018-06-19T03:24:30.073Z,82.51
2018-06-19T03:25:30.061Z,82.60
2018-06-19T03:26:30.049Z,82.54
2018-06-19T03:27:30.039Z,82.35
2018-06-19T03:28:30.029Z,82.74
2018-06-19T03:29:30.024Z,82.74
2018-06-19T03:30:30.010Z,83.31
2018-06-19T03:31:30.003Z,82.45
2018-06-19T03:32:29.986Z,81.88
2018-06-19T03:33:29.984Z,81.68
2018-06-19T03:34:29.976Z,81.97
2018-06-19T03:35:29.961Z,82.83
2018-06-19T03:36:29.944Z,83.03
2018-06-19T03:37:29.953Z,83.31
2018-06-19T03:38:29.932Z,83.31
2018-06-19T03:39:29.912Z,83.69
2018-06-19T03:40:29.907Z,82.83
2018-06-19T03:41:29.899Z,82.17
2018-06-19T03:42:29.889Z,81.59
2018-06-19T03:43:29.877Z,80.44
2018-06-19T03:44:29.868Z,80.63
2018-06-19T03:45:29.860Z,81.02
2018-06-19T03:46:29.846Z,81.11
2018-06-19T03:47:29.838Z,81.88
2018-06-19T03:48:29.827Z,82.26
2018-06-19T03:49:29.821Z,82.54
2018-06-19T03:50:29.805Z,82.93
2018-06-19T03:51:29.799Z,83.40
2018-06-19T03:52:29.790Z,83.31
2018-06-19T03:53:29.777Z,83.40
2018-06-19T03:54:29.762Z,83.22
2018-06-19T03:55:29.754Z,83.22
2018-06-19T03:56:29.756Z,83.12
2018-06-19T03:57:29.734Z,83.50
2018-06-19T03:58:29.728Z,83.31
2018-06-19T03:59:29.716Z,83.12
2018-06-19T04:00:29.703Z,83.50
2018-06-19T04:01:29.698Z,83.69
2018-06-19T04:02:29.691Z,84.84
2018-06-19T04:03:29.674Z,84.36
2018-06-19T04:04:29.661Z,84.17
2018-06-19T04:05:29.651Z,83.60
2018-06-19T04:06:29.643Z,83.89
2018-06-19T04:07:29.629Z,84.17
2018-06-19T04:08:29.624Z,84.36
2018-06-19T04:09:29.614Z,84.17
2018-06-19T04:10:29.655Z,84.17
2018-06-19T04:11:29.595Z,84.65
2018-06-19T04:12:29.590Z,84.36
2018-06-19T04:13:29.574Z,84.65
2018-06-19T04:14:29.564Z,84.65
2018-06-19T04:15:29.553Z,84.36
2018-06-19T04:16:29.541Z,84.75
2018-06-19T04:17:29.533Z,84.46
2018-06-19T04:18:29.523Z,84.75
2018-06-19T04:19:29.513Z,84.27
2018-06-19T04:20:29.500Z,84.08
2018-06-19T04:21:29.489Z,84.36
2018-06-19T04:22:29.484Z,84.65
2018-06-19T04:23:29.468Z,84.75
2018-06-19T04:24:29.465Z,83.89
2018-06-19T04:25:29.451Z,84.08
2018-06-19T04:26:29.446Z,81.40
2018-06-19T04:27:29.431Z,81.02
2018-06-19T04:28:29.421Z,80.25
2018-06-19T04:29:29.409Z,81.02
2018-06-19T04:30:29.401Z,81.02
2018-06-19T04:31:29.391Z,80.63
2018-06-19T04:32:29.378Z,80.92
2018-06-19T04:33:29.432Z,81.30
2018-06-19T04:34:29.365Z,81.49
2018-06-19T04:35:29.350Z,81.30
2018-06-19T04:36:29.338Z,81.21
2018-06-19T04:37:29.328Z,81.63
2018-06-19T04:38:29.322Z,81.54
2018-06-19T04:39:29.306Z,81.59
2018-06-19T04:40:29.303Z,82.30
2018-06-19T04:41:29.289Z,82.59
2018-06-19T04:42:29.289Z,82.97
2018-06-19T04:43:29.272Z,82.49
2018-06-19T04:44:29.261Z,81.63
2018-06-19T04:45:29.249Z,81.44
2018-06-19T04:46:29.239Z,82.01
2018-06-19T04:47:29.227Z,80.19
2018-06-19T04:48:29.218Z,79.43
2018-06-19T04:49:29.210Z,78.86
2018-06-19T04:50:29.202Z,78.47
2018-06-19T04:51:29.202Z,78.47
2018-06-19T04:52:29.181Z,78.38
2018-06-19T04:53:29.171Z,78.95
2018-06-19T04:54:29.161Z,79.05
2018-06-19T04:55:29.147Z,79.52
2018-06-19T04:56:29.140Z,79.33
2018-06-19T04:57:29.128Z,79.52
2018-06-19T04:58:29.118Z,79.81
2018-06-19T04:59:29.110Z,80.77
2018-06-19T05:00:29.104Z,80.58
2018-06-19T05:01:29.090Z,80.10
2018-06-19T05:02:29.082Z,79.91
2018-06-19T05:03:29.068Z,79.62
2018-06-19T05:04:29.055Z,79.33
2018-06-19T05:05:29.049Z,79.24
2018-06-19T05:06:29.039Z,79.33
2018-06-19T05:07:29.029Z,79.81
2018-06-19T05:08:29.021Z,80.77
2018-06-19T05:09:29.013Z,80.77
2018-06-19T05:10:29.001Z,80.67
2018-06-19T05:11:28.991Z,80.52
2018-06-19T05:12:28.980Z,80.43
2018-06-19T05:13:28.966Z,80.33
2018-06-19T05:14:28.967Z,79.75
2018-06-19T05:15:28.969Z,79.57
2018-06-19T05:16:28.939Z,79.47
2018-06-19T05:17:28.936Z,79.57
2018-06-19T05:18:28.918Z,79.43
2018-06-19T05:19:28.910Z,79.85
2018-06-19T05:20:28.902Z,80.38
2018-06-19T05:21:28.891Z,82.01
2018-06-19T05:22:28.883Z,82.87
2018-06-19T05:23:28.876Z,81.63
2018-06-19T05:24:28.862Z,81.63
2018-06-19T05:25:28.852Z,82.11
2018-06-19T05:26:28.842Z,81.63
2018-06-19T05:27:28.832Z,81.54
2018-06-19T05:28:28.824Z,81.63
2018-06-19T05:29:28.809Z,81.63
2018-06-19T05:30:28.877Z,80.71
2018-06-19T05:31:28.796Z,81.63
2018-06-19T05:32:28.798Z,81.96
2018-06-19T05:33:28.779Z,82.15
2018-06-19T05:34:28.764Z,80.71
2018-06-19T05:35:28.749Z,80.71
2018-06-19T05:36:28.744Z,80.71
2018-06-19T05:37:28.736Z,80.62
2018-06-19T05:38:28.730Z,80.71
2018-06-19T05:39:28.716Z,80.81
2018-06-19T05:40:28.704Z,80.81
2018-06-19T05:41:28.693Z,81.00
2018-06-19T05:42:28.688Z,79.95
2018-06-19T05:43:28.668Z,80.04
2018-06-19T05:44:28.666Z,80.33
2018-06-19T05:45:28.657Z,79.66
2018-06-19T05:46:28.647Z,79.47
2018-06-19T05:47:28.636Z,78.55
2018-06-19T05:48:28.625Z,78.27
2018-06-19T05:49:28.613Z,79.32
2018-06-19T05:50:28.609Z,78.84
2018-06-19T05:51:28.596Z,77.50
2018-06-19T05:52:28.587Z,77.69
2018-06-19T05:53:28.576Z,78.07
2018-06-19T05:54:28.564Z,77.88
2018-06-19T05:55:28.562Z,78.07
2018-06-19T05:56:28.550Z,76.92
2018-06-19T05:57:28.538Z,78.55
2018-06-19T05:58:28.529Z,78.55
2018-06-19T05:59:28.518Z,78.36
2018-06-19T06:00:28.514Z,78.74
2018-06-19T06:01:28.507Z,79.03
2018-06-19T06:02:28.494Z,79.13
2018-06-19T06:03:28.480Z,78.84
2018-06-19T06:04:28.476Z,78.45
2018-06-19T06:05:28.472Z,78.13
2018-06-19T06:06:28.452Z,78.22
2018-06-19T06:07:28.446Z,78.89
2018-06-19T06:08:28.433Z,78.32
2018-06-19T06:09:28.424Z,77.75
2018-06-19T06:10:28.429Z,77.08
2018-06-19T06:11:28.405Z,77.84
2018-06-19T06:12:28.404Z,78.61
2018-06-19T06:13:28.383Z,78.42
2018-06-19T06:14:28.378Z,78.99
2018-06-19T06:15:28.376Z,77.84
2018-06-19T06:16:28.422Z,78.03
2018-06-19T06:17:28.348Z,77.65
2018-06-19T06:18:28.337Z,78.03
2018-06-19T06:19:28.331Z,77.65
2018-06-19T06:20:28.319Z,78.42
2018-06-19T06:21:28.310Z,78.42
2018-06-19T06:22:28.302Z,79.08
2018-06-19T06:23:28.291Z,78.99
2018-06-19T06:24:28.278Z,78.80
2018-06-19T06:25:28.273Z,79.28
2018-06-19T06:26:28.261Z,79.18
2018-06-19T06:27:28.248Z,79.66
2018-06-19T06:28:28.248Z,79.75
2018-06-19T06:29:28.231Z,79.66
2018-06-19T06:30:28.224Z,79.57
2018-06-19T06:31:28.214Z,80.47
2018-06-19T06:32:28.202Z,80.18
2018-06-19T06:33:28.192Z,81.23
2018-06-19T06:34:28.183Z,81.52
2018-06-19T06:35:28.173Z,82.09
2018-06-19T06:36:28.168Z,79.60
2018-06-19T06:37:28.153Z,79.41
2018-06-19T06:38:28.148Z,78.84
2018-06-19T06:39:28.135Z,79.13
2018-06-19T06:40:28.143Z,78.84
2018-06-19T06:41:28.117Z,81.13
2018-06-19T06:42:28.106Z,80.76
2018-06-19T06:43:28.096Z,80.94
2018-06-19T06:44:28.086Z,81.04
2018-06-19T06:45:28.078Z,80.66
2018-06-19T06:46:28.072Z,80.70
2018-06-19T06:47:28.058Z,81.27
2018-06-19T06:48:28.055Z,81.08
2018-06-19T06:49:28.041Z,80.76
2018-06-19T06:50:28.117Z,80.79
2018-06-19T06:51:28.059Z,80.89
2018-06-19T06:52:28.015Z,81.66
2018-06-19T06:53:28.011Z,82.14
2018-06-19T06:54:27.999Z,81.75
2018-06-19T06:55:27.981Z,81.66
2018-06-19T06:56:27.976Z,81.56
2018-06-19T06:57:27.968Z,81.79
2018-06-19T06:58:27.956Z,81.12
2018-06-19T06:59:27.954Z,80.93
2018-06-19T07:00:27.936Z,80.26
2018-06-19T07:01:27.930Z,80.40
2018-06-19T07:02:27.919Z,80.01
2018-06-19T07:03:27.904Z,79.44
2018-06-19T07:04:27.899Z,79.63
2018-06-19T07:05:27.891Z,78.96
2018-06-19T07:06:27.883Z,79.05
2018-06-19T07:07:27.873Z,78.67
2018-06-19T07:08:27.864Z,79.14
2018-06-19T07:09:27.862Z,79.05
2018-06-19T07:10:27.846Z,78.80
2018-06-19T07:11:27.838Z,79.09
2018-06-19T07:12:27.828Z,79.19
2018-06-19T07:13:27.879Z,79.28
2018-06-19T07:14:27.811Z,78.23
2018-06-19T07:15:27.803Z,78.17
2018-06-19T07:16:27.796Z,76.31
2018-06-19T07:17:27.786Z,74.90
2018-06-19T07:18:27.778Z,75.20
2018-06-19T07:19:27.821Z,77.40
2018-06-19T07:20:27.763Z,77.40
2018-06-19T07:21:27.751Z,76.64
2018-06-19T07:22:27.787Z,76.06
2018-06-19T07:23:27.729Z,75.48
2018-06-19T07:24:27.725Z,74.52
2018-06-19T07:25:27.717Z,75.10
2018-06-19T07:26:27.705Z,74.90
2018-06-19T07:27:27.699Z,75.87
2018-06-19T07:28:27.690Z,75.38
2018-06-19T07:29:27.678Z,74.94
2018-06-19T07:30:27.672Z,75.20
2018-06-19T07:31:27.664Z,74.85
2018-06-19T07:32:27.658Z,74.08
2018-06-19T07:33:27.646Z,73.88
2018-06-19T07:34:27.640Z,73.79
2018-06-19T07:35:27.632Z,74.27
2018-06-19T07:36:27.621Z,74.11
2018-06-19T07:37:27.613Z,73.73
2018-06-19T07:38:27.763Z,73.54
2018-06-19T07:39:27.593Z,73.83
2018-06-19T07:40:27.589Z,74.11
2018-06-19T07:41:27.577Z,73.44
2018-06-19T07:42:27.569Z,73.96
2018-06-19T07:43:27.564Z,73.67
2018-06-19T07:44:27.553Z,73.47
2018-06-19T07:45:27.542Z,73.28
2018-06-19T07:46:27.537Z,73.38
2018-06-19T07:47:27.527Z,72.80
2018-06-19T07:48:27.523Z,72.52
2018-06-19T07:49:27.541Z,72.26
2018-06-19T07:50:27.510Z,71.46
2018-06-19T07:51:27.498Z,68.48
2018-06-19T07:52:27.494Z,67.42
2018-06-19T07:53:27.485Z,67.61
2018-06-19T07:54:27.475Z,67.42
2018-06-19T07:55:27.474Z,68.48
2018-06-19T07:56:27.467Z,67.32
2018-06-19T07:57:27.453Z,67.51
2018-06-19T07:58:27.462Z,67.22
2018-06-19T07:59:27.433Z,66.84
2018-06-19T08:00:27.430Z,67.51
2018-06-19T08:01:27.420Z,67.32
2018-06-19T08:02:27.410Z,66.33
2018-06-19T08:03:27.405Z,65.94
2018-06-19T08:04:27.401Z,65.84
2018-06-19T08:05:27.389Z,66.94
2018-06-19T08:06:27.387Z,66.14
2018-06-19T08:07:27.373Z,67.29
2018-06-19T08:08:27.368Z,66.71
2018-06-19T08:09:27.358Z,65.37
2018-06-19T08:10:27.348Z,65.27
2018-06-19T08:11:27.346Z,65.46
2018-06-19T08:12:27.980Z,66.14
2018-06-19T08:13:27.394Z,65.75
2018-06-19T08:14:27.323Z,66.65
2018-06-19T08:15:27.308Z,67.42
2018-06-19T08:16:27.309Z,67.22
2018-06-19T08:17:27.299Z,67.32
2018-06-19T08:18:27.293Z,68.19
2018-06-19T08:19:27.281Z,68.19
2018-06-19T08:20:27.271Z,67.22
2018-06-19T08:21:27.267Z,66.36
2018-06-19T08:22:27.261Z,67.61
2018-06-19T08:23:27.253Z,66.94
2018-06-19T08:24:27.238Z,65.97
2018-06-19T08:25:27.234Z,66.65
2018-06-19T08:26:27.224Z,66.01
2018-06-19T08:27:27.219Z,66.39
2018-06-19T08:28:27.212Z,66.68
2018-06-19T08:29:27.210Z,65.81
2018-06-19T08:30:27.192Z,64.66
2018-06-19T08:31:27.186Z,64.47
2018-06-19T08:32:27.182Z,64.47
2018-06-19T08:33:27.177Z,65.81
2018-06-19T08:34:27.172Z,66.68
2018-06-19T08:35:27.157Z,65.72
2018-06-19T08:36:27.154Z,64.95
2018-06-19T08:37:27.147Z,64.86
2018-06-19T08:38:27.134Z,64.47
2018-06-19T08:39:27.131Z,64.37
2018-06-19T08:40:27.121Z,64.18
2018-06-19T08:41:27.113Z,64.25
2018-06-19T08:42:27.105Z,65.50
2018-06-19T08:43:27.097Z,65.24
2018-06-19T08:44:27.087Z,64.18
2018-06-19T08:45:27.086Z,64.18
2018-06-19T08:46:27.075Z,63.79
2018-06-19T08:47:27.069Z,63.41
2018-06-19T08:48:27.064Z,63.12
2018-06-19T08:49:27.054Z,62.93
2018-06-19T08:50:27.050Z,63.70
2018-06-19T08:51:27.038Z,65.05
2018-06-19T08:52:27.028Z,64.37
2018-06-19T08:53:27.018Z,62.93
2018-06-19T08:54:27.017Z,64.08
2018-06-19T08:55:27.012Z,63.79
2018-06-19T08:56:27.003Z,64.02
2018-06-19T08:57:26.993Z,64.02
2018-06-19T08:58:26.988Z,62.06
2018-06-19T08:59:26.975Z,61.61
2018-06-19T09:00:26.971Z,61.61
2018-06-19T09:01:26.968Z,60.75
2018-06-19T09:02:26.957Z,62.09
2018-06-19T09:03:26.951Z,61.71
2018-06-19T09:04:26.934Z,62.09
2018-06-19T09:05:26.934Z,61.61
2018-06-19T09:06:26.924Z,62.19
2018-06-19T09:07:26.912Z,61.22
2018-06-19T09:08:26.920Z,61.52
2018-06-19T09:09:26.907Z,61.22
2018-06-19T09:10:26.895Z,61.32
2018-06-19T09:11:26.891Z,60.94
2018-06-19T09:12:26.883Z,60.55
2018-06-19T09:13:26.902Z,61.71
2018-06-19T09:14:26.869Z,61.90
2018-06-19T09:15:26.861Z,61.52
2018-06-19T09:16:26.857Z,61.32
2018-06-19T09:17:26.846Z,62.09
2018-06-19T09:18:26.834Z,62.29
2018-06-19T09:19:26.830Z,62.09
2018-06-19T09:20:26.864Z,62.26
2018-06-19T09:21:26.819Z,62.09
2018-06-19T09:22:26.811Z,62.96
2018-06-19T09:23:26.804Z,64.59
2018-06-19T09:24:26.798Z,65.46
2018-06-19T09:25:26.797Z,63.73
2018-06-19T09:26:26.779Z,64.63
2018-06-19T09:27:26.772Z,62.51
2018-06-19T09:28:26.777Z,61.45
2018-06-19T09:29:26.758Z,62.29
2018-06-19T09:30:26.753Z,62.48
2018-06-19T09:31:26.841Z,62.29
2018-06-19T09:32:26.741Z,61.04
2018-06-19T09:33:26.732Z,61.22
2018-06-19T09:34:26.722Z,62.19
2018-06-19T09:35:26.716Z,62.70
2018-06-19T09:36:26.703Z,61.65
2018-06-19T09:37:26.703Z,60.68
2018-06-19T09:38:26.702Z,60.39
2018-06-19T09:39:26.689Z,62.51
2018-06-19T09:40:26.688Z,60.58
2018-06-19T09:41:26.670Z,59.81
2018-06-19T09:42:26.667Z,59.23
2018-06-19T09:43:26.656Z,59.52
2018-06-19T09:44:26.649Z,59.23
2018-06-19T09:45:26.647Z,57.31
2018-06-19T09:46:26.639Z,58.85
2018-06-19T09:47:26.630Z,58.95
2018-06-19T09:48:26.623Z,58.08
2018-06-19T09:49:26.616Z,58.27
2018-06-19T09:50:26.614Z,56.54
2018-06-19T09:51:26.599Z,56.15
2018-06-19T09:52:26.594Z,58.27
2018-06-19T09:53:26.581Z,57.98
2018-06-19T09:54:26.588Z,56.05
2018-06-19T09:55:26.568Z,56.05
2018-06-19T09:56:26.564Z,55.87
2018-06-19T09:57:26.558Z,57.14
2018-06-19T09:58:26.593Z,59.27
2018-06-19T09:59:26.554Z,56.09
2018-06-19T10:00:26.535Z,56.18
2018-06-19T10:01:26.537Z,56.57
2018-06-19T10:02:26.528Z,56.18
2018-06-19T10:03:26.511Z,55.60
2018-06-19T10:04:26.521Z,55.60
2018-06-19T10:05:26.503Z,56.47
2018-06-19T10:06:26.517Z,55.89
2018-06-19T10:07:26.490Z,56.57
2018-06-19T10:08:26.482Z,55.22
2018-06-19T10:09:26.473Z,55.22
2018-06-19T10:10:26.466Z,55.70
2018-06-19T10:11:26.455Z,56.95
2018-06-19T10:12:26.454Z,56.95
2018-06-19T10:13:26.466Z,55.02
2018-06-19T10:14:26.440Z,55.89
2018-06-19T10:15:26.435Z,56.09
2018-06-19T10:16:26.422Z,56.95
2018-06-19T10:17:26.422Z,57.05
2018-06-19T10:18:26.410Z,57.53
2018-06-19T10:19:26.470Z,58.30
2018-06-19T10:20:26.395Z,58.20
2018-06-19T10:21:26.388Z,57.82
2018-06-19T10:22:26.380Z,57.82
2018-06-19T10:23:26.379Z,55.99
2018-06-19T10:24:26.372Z,55.34
2018-06-19T10:25:26.369Z,55.24
2018-06-19T10:26:26.356Z,56.01
2018-06-19T10:27:26.351Z,57.07
2018-06-19T10:28:26.343Z,55.82
2018-06-19T10:29:26.337Z,56.30
2018-06-19T10:30:26.329Z,55.73
2018-06-19T10:31:26.325Z,55.73
2018-06-19T10:32:26.317Z,55.92
2018-06-19T10:33:26.310Z,55.63
2018-06-19T10:34:26.298Z,55.15
2018-06-19T10:35:26.298Z,57.85
2018-06-19T10:36:26.290Z,57.94
2018-06-19T10:37:26.286Z,55.92
2018-06-19T10:38:26.275Z,55.05
2018-06-19T10:39:26.262Z,55.82
2018-06-19T10:40:26.260Z,55.92
2018-06-19T10:41:26.258Z,55.15
2018-06-19T10:42:26.249Z,54.18
2018-06-19T10:43:26.248Z,54.76
2018-06-19T10:44:26.245Z,55.94
2018-06-19T10:45:26.232Z,55.85
2018-06-19T10:46:26.230Z,54.88
2018-06-19T10:47:26.217Z,54.98
2018-06-19T10:48:26.207Z,54.79
2018-06-19T10:49:26.200Z,54.79
2018-06-19T10:50:26.190Z,55.27
2018-06-19T10:51:26.196Z,55.27
2018-06-19T10:52:26.181Z,55.36
2018-06-19T10:53:26.173Z,54.88
2018-06-19T10:54:26.167Z,55.78
2018-06-19T10:55:26.160Z,55.20
2018-06-19T10:56:26.152Z,54.62
2018-06-19T10:57:26.152Z,55.10
2018-06-19T10:58:26.135Z,55.59
2018-06-19T10:59:26.133Z,55.20
2018-06-19T11:00:26.127Z,54.43
2018-06-19T11:01:26.121Z,54.14
2018-06-19T11:02:26.113Z,53.75
2018-06-19T11:03:26.107Z,54.24
2018-06-19T11:04:26.100Z,53.47
2018-06-19T11:05:26.095Z,53.88
2018-06-19T11:06:26.085Z,54.17
2018-06-19T11:07:26.079Z,53.39
2018-06-19T11:08:26.076Z,54.07
2018-06-19T11:09:26.067Z,52.91
2018-06-19T11:10:26.071Z,52.21
2018-06-19T11:11:26.059Z,53.11
2018-06-19T11:12:26.051Z,53.59
2018-06-19T11:13:26.042Z,53.49
2018-06-19T11:14:26.039Z,53.39
2018-06-19T11:15:26.035Z,53.39
2018-06-19T11:16:26.054Z,54.36
2018-06-19T11:17:26.047Z,53.11
2018-06-19T11:18:26.014Z,53.01
2018-06-19T11:19:26.006Z,54.36
2018-06-19T11:20:26.000Z,53.39
2018-06-19T11:21:26.040Z,53.39
2018-06-19T11:22:25.989Z,53.13
2018-06-19T11:23:25.981Z,52.94
2018-06-19T11:24:25.970Z,51.29
2018-06-19T11:25:25.964Z,51.01
2018-06-19T11:26:25.963Z,51.87
2018-06-19T11:27:25.953Z,52.17
2018-06-19T11:28:25.954Z,52.94
2018-06-19T11:29:25.943Z,53.03
2018-06-19T11:30:25.939Z,52.17
2018-06-19T11:31:25.936Z,51.39
2018-06-19T11:32:25.926Z,51.20
2018-06-19T11:33:25.920Z,51.71
2018-06-19T11:34:25.917Z,52.09
2018-06-19T11:35:25.904Z,51.13
2018-06-19T11:36:25.903Z,51.71
2018-06-19T11:37:25.899Z,49.10
2018-06-19T11:38:25.891Z,50.16
2018-06-19T11:39:25.888Z,50.26
2018-06-19T11:40:25.876Z,50.16
2018-06-19T11:41:25.873Z,50.16
2018-06-19T11:42:25.869Z,51.13
2018-06-19T11:43:25.886Z,51.23
2018-06-19T11:44:25.857Z,51.03
2018-06-19T11:45:25.856Z,51.13
2018-06-19T11:46:25.846Z,50.45
2018-06-19T11:47:25.835Z,50.16
2018-06-19T11:48:25.831Z,51.03
2018-06-19T11:49:25.828Z,51.51
2018-06-19T11:50:25.821Z,51.13
2018-06-19T11:51:25.868Z,52.61
2018-06-19T11:52:25.808Z,52.22
2018-06-19T11:53:25.806Z,51.64
2018-06-19T11:54:25.800Z,50.86
2018-06-19T11:55:25.792Z,50.67
2018-06-19T11:56:25.789Z,52.31
2018-06-19T11:57:25.779Z,51.35
2018-06-19T11:58:25.785Z,52.61
2018-06-19T11:59:25.773Z,51.93
2018-06-19T12:00:25.763Z,51.64
2018-06-19T12:01:25.763Z,51.35
2018-06-19T12:02:25.753Z,51.66
2018-06-19T12:03:25.744Z,52.51
2018-06-19T12:04:25.747Z,51.28
2018-06-19T12:05:25.740Z,51.35
2018-06-19T12:06:25.748Z,51.56
2018-06-19T12:07:25.732Z,52.31
2018-06-19T12:08:25.727Z,52.44
2018-06-19T12:09:25.721Z,52.34
2018-06-19T12:10:25.713Z,51.28
2018-06-19T12:11:25.706Z,52.34
2018-06-19T12:12:25.701Z,51.37
2018-06-19T12:13:25.697Z,51.06
2018-06-19T12:14:25.689Z,52.05
2018-06-19T12:15:25.689Z,51.56
2018-06-19T12:16:25.680Z,51.95
2018-06-19T12:17:25.674Z,52.05
2018-06-19T12:18:25.667Z,51.56
2018-06-19T12:19:25.664Z,51.15
2018-06-19T12:20:25.661Z,53.41
2018-06-19T12:21:25.663Z,53.02
2018-06-19T12:22:25.646Z,52.53
2018-06-19T12:23:25.642Z,53.11
2018-06-19T12:24:25.640Z,52.34
2018-06-19T12:25:25.631Z,50.50
2018-06-19T12:26:25.629Z,51.28
2018-06-19T12:27:25.617Z,51.95
2018-06-19T12:28:25.613Z,54.30
2018-06-19T12:29:25.615Z,53.91
2018-06-19T12:30:25.609Z,53.14
2018-06-19T12:31:25.606Z,51.30
2018-06-19T12:32:25.602Z,50.92
2018-06-19T12:33:25.590Z,50.92
2018-06-19T12:34:25.588Z,52.75
2018-06-19T12:35:25.584Z,51.68
2018-06-19T12:36:25.637Z,54.11
2018-06-19T12:37:25.587Z,51.59
2018-06-19T12:38:25.573Z,51.52
2018-06-19T12:39:25.562Z,51.13
2018-06-19T12:40:25.553Z,52.58
2018-06-19T12:41:25.549Z,52.58
2018-06-19T12:42:25.545Z,52.97
2018-06-19T12:43:25.539Z,53.07
2018-06-19T12:44:25.533Z,51.13
2018-06-19T12:45:25.533Z,50.26
2018-06-19T12:46:25.527Z,50.74
2018-06-19T12:47:25.521Z,51.23
2018-06-19T12:48:25.516Z,50.94
2018-06-19T12:49:25.512Z,51.32
2018-06-19T12:50:25.508Z,50.16
2018-06-19T12:51:25.506Z,50.26
2018-06-19T12:52:25.494Z,50.94